CheckWX is a tool to help pilots better visualize weather data.  It is not intended as a substitute for an official pre-flight weather briefing.

20:12:53 UTC

KEGE TAF
Eagle County Regional Airport
Eagle, Colorado, USA
KEGE 032320Z 0400/0424 30010G18KT P6SM VCSH SCT100 BKN120 FM040200 33010KT P6SM SCT100 BKN180 FM040400 VRB03KT P6SM FEW100 FM041800 25010G20KT P6SM SCT090

Jun-4@
00:00 UTC

Jun-4 @ 00:00 UTC

Jun-4@
02:00 UTC

Jun-4 @ 02:00 UTC

TAF KEGE 032320Z 0400/0424 30010G18KT P6SM VCSH SCT100 BKN120

Expired

Wind
  • 300° at 10 KTS
  • {Gusting to 18 KTS
Conditions
Area Showers
Cloud Levels
  • Scattered at 10,000' AGL
  • Broken at 12,000' AGL

Jun-4@
02:00 UTC

Jun-4 @ 02:00 UTC

Jun-4@
04:00 UTC

Jun-4 @ 04:00 UTC

FM040200 33010KT P6SM SCT100 BKN180

Expired

Wind
  • 330° at 10 KTS
Cloud Levels
  • Scattered at 10,000' AGL
  • Broken at 18,000' AGL

Jun-4@
04:00 UTC

Jun-4 @ 04:00 UTC

Jun-4@
18:00 UTC

Jun-4 @ 18:00 UTC

FM040400 VRB03KT P6SM FEW100

Expired

Wind
  • Variable at 3 KTS
Cloud Levels
  • Few at 10,000' AGL

Jun-4@
18:00 UTC

Jun-4 @ 18:00 UTC

Jun-5@
00:00 UTC

Jun-5 @ 00:00 UTC

FM041800 25010G20KT P6SM SCT090

From

From Standard forecast or significant change

Wind
  • 250° at 10 KTS
  • {Gusting to 20 KTS
Cloud Levels
  • Scattered at 9,000' AGL